sensor_id;sensor_type;location;lat;lon;timestamp;temperature;humidity
8595;DHT22;4335;48.860;9.198;2023-10-08T00:00:54;15.00;99.90
8595;DHT22;4335;48.860;9.198;2023-10-08T00:03:27;15.00;99.90
8595;DHT22;4335;48.860;9.198;2023-10-08T00:05:55;14.90;99.90
8595;DHT22;4335;48.860;9.198;2023-10-08T00:08:22;14.90;99.90
8595;DHT22;4335;48.860;9.198;2023-10-08T00:10:51;14.90;99.90
8595;DHT22;4335;48.860;9.198;2023-10-08T00:13:19;14.90;99.90
8595;DHT22;4335;48.860;9.198;2023-10-08T00:15:51;14.90;99.90
8595;DHT22;4335;48.860;9.198;2023-10-08T00:18:19;14.90;99.90
8595;DHT22;4335;48.860;9.198;2023-10-08T00:20:49;14.90;99.90
8595;DHT22;4335;48.860;9.198;2023-10-08T00:23:21;14.90;99.90
8595;DHT22;4335;48.860;9.198;2023-10-08T00:25:54;14.90;99.90
8595;DHT22;4335;48.860;9.198;2023-10-08T00:28:21;14.90;99.90
8595;DHT22;4335;48.860;9.198;2023-10-08T00:30:47;14.90;99.90
8595;DHT22;4335;48.860;9.198;2023-10-08T00:33:15;14.90;99.90
8595;DHT22;4335;48.860;9.198;2023-10-08T00:35:49;14.90;99.90
8595;DHT22;4335;48.860;9.198;2023-10-08T00:38:16;14.90;99.90
8595;DHT22;4335;48.860;9.198;2023-10-08T00:41:01;14.90;99.90
8595;DHT22;4335;48.860;9.198;2023-10-08T00:43:32;14.90;99.90
8595;DHT22;4335;48.860;9.198;2023-10-08T00:46:02;14.90;99.90
8595;DHT22;4335;48.860;9.198;2023-10-08T00:48:43;14.90;99.90
8595;DHT22;4335;48.860;9.198;2023-10-08T00:51:18;14.90;99.90
8595;DHT22;4335;48.860;9.198;2023-10-08T00:53:56;14.80;99.90
8595;DHT22;4335;48.860;9.198;2023-10-08T00:56:29;14.80;99.90
8595;DHT22;4335;48.860;9.198;2023-10-08T00:59:12;14.80;99.90
8595;DHT22;4335;48.860;9.198;2023-10-08T01:01:41;14.80;99.90
8595;DHT22;4335;48.860;9.198;2023-10-08T01:04:16;14.70;99.90
8595;DHT22;4335;48.860;9.198;2023-10-08T01:06:43;14.70;99.90
8595;DHT22;4335;48.860;9.198;2023-10-08T01:09:25;14.70;99.90
8595;DHT22;4335;48.860;9.198;2023-10-08T01:12:14;14.70;99.90
8595;DHT22;4335;48.860;9.198;2023-10-08T01:14:42;14.70;99.90
8595;DHT22;4335;48.860;9.198;2023-10-08T01:17:09;14.70;99.90
8595;DHT22;4335;48.860;9.198;2023-10-08T01:19:51;14.70;99.90
8595;DHT22;4335;48.860;9.198;2023-10-08T01:22:23;14.70;99.90
8595;DHT22;4335;48.860;9.198;2023-10-08T01:24:54;14.60;99.90
8595;DHT22;4335;48.860;9.198;2023-10-08T01:27:21;14.60;99.90
8595;DHT22;4335;48.860;9.198;2023-10-08T01:29:51;14.60;99.90
8595;DHT22;4335;48.860;9.198;2023-10-08T01:32:21;14.60;99.90
8595;DHT22;4335;48.860;9.198;2023-10-08T01:34:48;14.60;99.90
8595;DHT22;4335;48.860;9.198;2023-10-08T01:37:16;14.50;99.90
8595;DHT22;4335;48.860;9.198;2023-10-08T01:39:47;14.50;99.90
8595;DHT22;4335;48.860;9.198;2023-10-08T01:42:16;14.50;99.90
8595;DHT22;4335;48.860;9.198;2023-10-08T01:44:47;14.50;99.90
8595;DHT22;4335;48.860;9.198;2023-10-08T01:47:17;14.50;99.90
8595;DHT22;4335;48.860;9.198;2023-10-08T01:49:48;14.40;99.90
8595;DHT22;4335;48.860;9.198;2023-10-08T01:52:16;14.50;99.90
8595;DHT22;4335;48.860;9.198;2023-10-08T01:54:47;14.40;99.90
8595;DHT22;4335;48.860;9.198;2023-10-08T01:57:14;14.40;99.90
8595;DHT22;4335;48.860;9.198;2023-10-08T01:59:41;14.40;99.90
8595;DHT22;4335;48.860;9.198;2023-10-08T02:02:12;14.40;99.90
8595;DHT22;4335;48.860;9.198;2023-10-08T02:04:41;14.30;99.90
8595;DHT22;4335;48.860;9.198;2023-10-08T02:07:08;14.30;99.90
8595;DHT22;4335;48.860;9.198;2023-10-08T02:09:38;14.20;99.90
8595;DHT22;4335;48.860;9.198;2023-10-08T02:12:12;14.20;99.90
8595;DHT22;4335;48.860;9.198;2023-10-08T02:14:41;14.20;99.90
8595;DHT22;4335;48.860;9.198;2023-10-08T02:17:07;14.10;99.90
8595;DHT22;4335;48.860;9.198;2023-10-08T02:19:35;14.10;99.90
8595;DHT22;4335;48.860;9.198;2023-10-08T02:22:03;14.10;99.90
8595;DHT22;4335;48.860;9.198;2023-10-08T02:24:33;14.10;99.90
8595;DHT22;4335;48.860;9.198;2023-10-08T02:27:03;14.00;99.90
8595;DHT22;4335;48.860;9.198;2023-10-08T02:29:34;14.00;99.90
8595;DHT22;4335;48.860;9.198;2023-10-08T02:32:01;13.90;99.90
8595;DHT22;4335;48.860;9.198;2023-10-08T02:34:33;13.90;99.90
8595;DHT22;4335;48.860;9.198;2023-10-08T02:37:03;13.80;99.90
8595;DHT22;4335;48.860;9.198;2023-10-08T02:39:33;13.80;99.90
8595;DHT22;4335;48.860;9.198;2023-10-08T02:42:00;13.80;99.90
8595;DHT22;4335;48.860;9.198;2023-10-08T02:44:28;13.70;99.90
8595;DHT22;4335;48.860;9.198;2023-10-08T02:46:55;13.70;99.90
8595;DHT22;4335;48.860;9.198;2023-10-08T02:49:27;13.60;99.90
8595;DHT22;4335;48.860;9.198;2023-10-08T02:51:57;13.60;99.90
8595;DHT22;4335;48.860;9.198;2023-10-08T02:54:27;13.60;99.90
8595;DHT22;4335;48.860;9.198;2023-10-08T02:56:58;13.60;99.90
8595;DHT22;4335;48.860;9.198;2023-10-08T02:59:41;13.50;99.90
8595;DHT22;4335;48.860;9.198;2023-10-08T03:02:16;13.50;99.90
8595;DHT22;4335;48.860;9.198;2023-10-08T03:04:45;13.50;99.90
8595;DHT22;4335;48.860;9.198;2023-10-08T03:07:15;13.50;99.90
8595;DHT22;4335;48.860;9.198;2023-10-08T03:09:52;13.50;99.90
8595;DHT22;4335;48.860;9.198;2023-10-08T03:12:33;13.40;99.90
8595;DHT22;4335;48.860;9.198;2023-10-08T03:15:06;13.30;99.90
8595;DHT22;4335;48.860;9.198;2023-10-08T03:18:02;13.30;99.90
8595;DHT22;4335;48.860;9.198;2023-10-08T03:20:36;13.30;99.90
8595;DHT22;4335;48.860;9.198;2023-10-08T03:23:13;13.30;99.90
8595;DHT22;4335;48.860;9.198;2023-10-08T03:25:53;13.30;99.90
8595;DHT22;4335;48.860;9.198;2023-10-08T03:28:32;13.20;99.90
8595;DHT22;4335;48.860;9.198;2023-10-08T03:31:03;13.20;99.90
8595;DHT22;4335;48.860;9.198;2023-10-08T03:33:33;13.20;99.90
8595;DHT22;4335;48.860;9.198;2023-10-08T03:36:01;13.20;99.90
8595;DHT22;4335;48.860;9.198;2023-10-08T03:38:37;13.20;99.90
8595;DHT22;4335;48.860;9.198;2023-10-08T03:41:21;13.20;99.90
8595;DHT22;4335;48.860;9.198;2023-10-08T03:43:56;13.20;99.90
8595;DHT22;4335;48.860;9.198;2023-10-08T03:46:33;13.10;99.90
8595;DHT22;4335;48.860;9.198;2023-10-08T03:49:06;13.10;99.90
8595;DHT22;4335;48.860;9.198;2023-10-08T03:51:40;13.10;99.90
8595;DHT22;4335;48.860;9.198;2023-10-08T03:54:10;13.10;99.90
8595;DHT22;4335;48.860;9.198;2023-10-08T03:56:45;13.10;99.90
8595;DHT22;4335;48.860;9.198;2023-10-08T03:59:14;13.10;99.90
8595;DHT22;4335;48.860;9.198;2023-10-08T04:01:49;13.00;99.90
8595;DHT22;4335;48.860;9.198;2023-10-08T04:04:21;13.00;99.90
8595;DHT22;4335;48.860;9.198;2023-10-08T04:07:02;13.00;99.90
8595;DHT22;4335;48.860;9.198;2023-10-08T04:09:43;13.00;99.90
8595;DHT22;4335;48.860;9.198;2023-10-08T04:12:17;13.00;99.90
8595;DHT22;4335;48.860;9.198;2023-10-08T04:14:47;12.90;99.90
8595;DHT22;4335;48.860;9.198;2023-10-08T04:17:14;12.90;99.90
8595;DHT22;4335;48.860;9.198;2023-10-08T04:19:51;12.90;99.90
8595;DHT22;4335;48.860;9.198;2023-10-08T04:22:18;12.90;99.90
8595;DHT22;4335;48.860;9.198;2023-10-08T04:24:50;12.80;99.90
8595;DHT22;4335;48.860;9.198;2023-10-08T04:27:17;12.80;99.90
8595;DHT22;4335;48.860;9.198;2023-10-08T04:29:47;12.80;99.90
8595;DHT22;4335;48.860;9.198;2023-10-08T04:32:15;12.80;99.90
8595;DHT22;4335;48.860;9.198;2023-10-08T04:34:54;12.80;99.90
8595;DHT22;4335;48.860;9.198;2023-10-08T04:37:25;12.90;99.90
8595;DHT22;4335;48.860;9.198;2023-10-08T04:40:01;12.80;99.90
8595;DHT22;4335;48.860;9.198;2023-10-08T04:42:30;12.80;99.90
8595;DHT22;4335;48.860;9.198;2023-10-08T04:45:00;12.80;99.90
8595;DHT22;4335;48.860;9.198;2023-10-08T04:47:28;12.80;99.90
8595;DHT22;4335;48.860;9.198;2023-10-08T04:50:01;12.80;99.90
8595;DHT22;4335;48.860;9.198;2023-10-08T04:52:33;12.80;99.90
8595;DHT22;4335;48.860;9.198;2023-10-08T04:55:17;12.70;99.90
8595;DHT22;4335;48.860;9.198;2023-10-08T04:57:54;12.70;99.90
8595;DHT22;4335;48.860;9.198;2023-10-08T05:00:21;12.70;99.90
8595;DHT22;4335;48.860;9.198;2023-10-08T05:03:10;12.70;99.90
8595;DHT22;4335;48.860;9.198;2023-10-08T05:05:41;12.70;99.90
8595;DHT22;4335;48.860;9.198;2023-10-08T05:08:21;12.70;99.90
8595;DHT22;4335;48.860;9.198;2023-10-08T05:11:00;12.70;99.90
8595;DHT22;4335;48.860;9.198;2023-10-08T05:13:56;12.70;99.90
8595;DHT22;4335;48.860;9.198;2023-10-08T05:16:34;12.70;99.90
8595;DHT22;4335;48.860;9.198;2023-10-08T05:19:26;12.70;99.90
8595;DHT22;4335;48.860;9.198;2023-10-08T05:22:15;12.70;99.90
8595;DHT22;4335;48.860;9.198;2023-10-08T05:25:08;12.80;99.90
8595;DHT22;4335;48.860;9.198;2023-10-08T05:27:53;12.80;99.90
8595;DHT22;4335;48.860;9.198;2023-10-08T05:30:24;12.90;99.90
8595;DHT22;4335;48.860;9.198;2023-10-08T05:33:11;12.90;99.90
8595;DHT22;4335;48.860;9.198;2023-10-08T05:36:10;12.90;99.90
8595;DHT22;4335;48.860;9.198;2023-10-08T05:38:44;12.90;99.90
8595;DHT22;4335;48.860;9.198;2023-10-08T05:41:28;12.90;99.90
8595;DHT22;4335;48.860;9.198;2023-10-08T05:44:05;12.90;99.90
8595;DHT22;4335;48.860;9.198;2023-10-08T05:46:52;12.90;99.90
8595;DHT22;4335;48.860;9.198;2023-10-08T05:49:51;13.00;99.90
8595;DHT22;4335;48.860;9.198;2023-10-08T05:52:40;13.00;99.90
8595;DHT22;4335;48.860;9.198;2023-10-08T05:55:17;13.00;99.90
8595;DHT22;4335;48.860;9.198;2023-10-08T05:57:52;13.00;99.90
8595;DHT22;4335;48.860;9.198;2023-10-08T06:00:29;13.10;99.90
8595;DHT22;4335;48.860;9.198;2023-10-08T06:03:10;13.10;99.90
8595;DHT22;4335;48.860;9.198;2023-10-08T06:05:40;13.20;99.90
8595;DHT22;4335;48.860;9.198;2023-10-08T06:08:14;13.40;99.90
8595;DHT22;4335;48.860;9.198;2023-10-08T06:10:50;13.60;99.90
8595;DHT22;4335;48.860;9.198;2023-10-08T06:13:26;13.70;99.90
8595;DHT22;4335;48.860;9.198;2023-10-08T06:16:12;13.80;99.90
8595;DHT22;4335;48.860;9.198;2023-10-08T06:19:03;13.80;99.90
8595;DHT22;4335;48.860;9.198;2023-10-08T06:21:30;13.80;99.90
8595;DHT22;4335;48.860;9.198;2023-10-08T06:23:57;13.70;99.90
8595;DHT22;4335;48.860;9.198;2023-10-08T06:26:27;13.70;99.90
8595;DHT22;4335;48.860;9.198;2023-10-08T06:28:59;13.70;99.90
8595;DHT22;4335;48.860;9.198;2023-10-08T06:31:38;13.60;99.90
8595;DHT22;4335;48.860;9.198;2023-10-08T06:34:09;13.70;99.90
8595;DHT22;4335;48.860;9.198;2023-10-08T06:36:38;13.70;99.90
8595;DHT22;4335;48.860;9.198;2023-10-08T06:39:08;13.70;99.90
8595;DHT22;4335;48.860;9.198;2023-10-08T06:41:42;13.70;99.90
8595;DHT22;4335;48.860;9.198;2023-10-08T06:44:08;13.70;99.90
8595;DHT22;4335;48.860;9.198;2023-10-08T06:46:40;13.80;99.90
8595;DHT22;4335;48.860;9.198;2023-10-08T06:49:08;13.80;99.90
8595;DHT22;4335;48.860;9.198;2023-10-08T06:51:38;13.80;99.90
8595;DHT22;4335;48.860;9.198;2023-10-08T06:54:05;13.90;99.90
8595;DHT22;4335;48.860;9.198;2023-10-08T06:56:36;14.00;99.90
8595;DHT22;4335;48.860;9.198;2023-10-08T06:59:03;14.10;99.90
8595;DHT22;4335;48.860;9.198;2023-10-08T07:01:31;14.10;99.90
8595;DHT22;4335;48.860;9.198;2023-10-08T07:04:10;14.20;99.90
8595;DHT22;4335;48.860;9.198;2023-10-08T07:06:38;14.20;99.90
8595;DHT22;4335;48.860;9.198;2023-10-08T07:09:10;14.30;99.90
8595;DHT22;4335;48.860;9.198;2023-10-08T07:11:49;14.40;99.90
8595;DHT22;4335;48.860;9.198;2023-10-08T07:14:19;14.40;99.90
8595;DHT22;4335;48.860;9.198;2023-10-08T07:16:45;14.50;99.90
8595;DHT22;4335;48.860;9.198;2023-10-08T07:19:13;14.50;99.90
8595;DHT22;4335;48.860;9.198;2023-10-08T07:21:45;14.60;99.90
8595;DHT22;4335;48.860;9.198;2023-10-08T07:24:15;14.70;99.90
8595;DHT22;4335;48.860;9.198;2023-10-08T07:26:43;14.70;99.90
8595;DHT22;4335;48.860;9.198;2023-10-08T07:29:19;14.80;99.90
8595;DHT22;4335;48.860;9.198;2023-10-08T07:31:46;14.90;99.90
8595;DHT22;4335;48.860;9.198;2023-10-08T07:34:15;15.00;99.90
8595;DHT22;4335;48.860;9.198;2023-10-08T07:36:44;15.10;99.90
8595;DHT22;4335;48.860;9.198;2023-10-08T07:39:14;15.20;99.90
8595;DHT22;4335;48.860;9.198;2023-10-08T07:41:52;15.30;99.90
8595;DHT22;4335;48.860;9.198;2023-10-08T07:44:21;15.40;99.90
8595;DHT22;4335;48.860;9.198;2023-10-08T07:46:51;15.50;99.90
8595;DHT22;4335;48.860;9.198;2023-10-08T07:49:20;15.70;99.90
8595;DHT22;4335;48.860;9.198;2023-10-08T07:51:52;15.80;99.90
8595;DHT22;4335;48.860;9.198;2023-10-08T07:54:22;15.90;99.90
8595;DHT22;4335;48.860;9.198;2023-10-08T07:56:52;16.00;99.90
8595;DHT22;4335;48.860;9.198;2023-10-08T07:59:23;16.20;99.90
8595;DHT22;4335;48.860;9.198;2023-10-08T08:01:53;16.20;99.90
8595;DHT22;4335;48.860;9.198;2023-10-08T08:04:21;16.30;99.90
8595;DHT22;4335;48.860;9.198;2023-10-08T08:06:51;16.40;99.90
8595;DHT22;4335;48.860;9.198;2023-10-08T08:09:19;16.40;99.90
8595;DHT22;4335;48.860;9.198;2023-10-08T08:11:51;16.50;99.90
8595;DHT22;4335;48.860;9.198;2023-10-08T08:14:31;16.50;99.90
8595;DHT22;4335;48.860;9.198;2023-10-08T08:17:01;16.40;99.90
8595;DHT22;4335;48.860;9.198;2023-10-08T08:19:39;16.40;99.90
8595;DHT22;4335;48.860;9.198;2023-10-08T08:22:12;16.40;99.90
8595;DHT22;4335;48.860;9.198;2023-10-08T08:24:41;16.40;99.90
8595;DHT22;4335;48.860;9.198;2023-10-08T08:27:17;16.50;99.90
8595;DHT22;4335;48.860;9.198;2023-10-08T08:29:53;16.60;99.90
8595;DHT22;4335;48.860;9.198;2023-10-08T08:32:22;16.60;99.90
8595;DHT22;4335;48.860;9.198;2023-10-08T08:34:52;16.70;99.90
8595;DHT22;4335;48.860;9.198;2023-10-08T08:37:19;16.80;99.90
8595;DHT22;4335;48.860;9.198;2023-10-08T08:39:56;16.90;99.90
8595;DHT22;4335;48.860;9.198;2023-10-08T08:42:38;17.00;99.90
8595;DHT22;4335;48.860;9.198;2023-10-08T08:45:19;17.20;99.90
8595;DHT22;4335;48.860;9.198;2023-10-08T08:47:46;17.40;99.90
8595;DHT22;4335;48.860;9.198;2023-10-08T08:50:28;17.50;99.90
8595;DHT22;4335;48.860;9.198;2023-10-08T08:52:59;17.60;99.90
8595;DHT22;4335;48.860;9.198;2023-10-08T08:55:30;17.80;99.90
8595;DHT22;4335;48.860;9.198;2023-10-08T08:58:01;17.90;99.90
8595;DHT22;4335;48.860;9.198;2023-10-08T09:00:35;18.10;99.90
8595;DHT22;4335;48.860;9.198;2023-10-08T09:03:09;18.30;99.90
8595;DHT22;4335;48.860;9.198;2023-10-08T09:05:39;18.40;99.90
8595;DHT22;4335;48.860;9.198;2023-10-08T09:08:07;18.60;99.90
8595;DHT22;4335;48.860;9.198;2023-10-08T09:10:36;18.80;99.90
8595;DHT22;4335;48.860;9.198;2023-10-08T09:13:04;18.90;99.90
8595;DHT22;4335;48.860;9.198;2023-10-08T09:15:31;19.10;99.90
8595;DHT22;4335;48.860;9.198;2023-10-08T09:18:01;19.30;99.90
8595;DHT22;4335;48.860;9.198;2023-10-08T09:20:30;19.40;99.90
8595;DHT22;4335;48.860;9.198;2023-10-08T09:23:07;19.60;99.90
8595;DHT22;4335;48.860;9.198;2023-10-08T09:25:37;19.90;99.90
8595;DHT22;4335;48.860;9.198;2023-10-08T09:28:07;20.20;99.90
8595;DHT22;4335;48.860;9.198;2023-10-08T09:30:37;20.40;99.90
8595;DHT22;4335;48.860;9.198;2023-10-08T09:33:05;20.70;99.90
8595;DHT22;4335;48.860;9.198;2023-10-08T09:35:33;21.10;99.90
8595;DHT22;4335;48.860;9.198;2023-10-08T09:38:03;21.30;99.90
8595;DHT22;4335;48.860;9.198;2023-10-08T09:40:33;21.60;99.90
8595;DHT22;4335;48.860;9.198;2023-10-08T09:42:59;21.60;99.90
8595;DHT22;4335;48.860;9.198;2023-10-08T09:45:30;21.70;99.90
8595;DHT22;4335;48.860;9.198;2023-10-08T09:47:59;21.90;99.90
8595;DHT22;4335;48.860;9.198;2023-10-08T09:50:30;21.90;99.90
8595;DHT22;4335;48.860;9.198;2023-10-08T09:53:01;21.80;99.90
8595;DHT22;4335;48.860;9.198;2023-10-08T09:55:36;21.80;99.90
8595;DHT22;4335;48.860;9.198;2023-10-08T09:58:03;21.80;99.90
8595;DHT22;4335;48.860;9.198;2023-10-08T10:00:31;21.90;99.90
8595;DHT22;4335;48.860;9.198;2023-10-08T10:03:02;21.90;99.90
8595;DHT22;4335;48.860;9.198;2023-10-08T10:05:33;21.90;99.90
8595;DHT22;4335;48.860;9.198;2023-10-08T10:08:05;21.90;99.90
8595;DHT22;4335;48.860;9.198;2023-10-08T10:10:33;22.00;99.90
8595;DHT22;4335;48.860;9.198;2023-10-08T10:13:02;22.00;99.90
8595;DHT22;4335;48.860;9.198;2023-10-08T10:15:36;22.00;99.90
8595;DHT22;4335;48.860;9.198;2023-10-08T10:18:09;22.00;99.90
8595;DHT22;4335;48.860;9.198;2023-10-08T10:20:44;22.00;99.90
8595;DHT22;4335;48.860;9.198;2023-10-08T10:23:36;22.10;99.90
8595;DHT22;4335;48.860;9.198;2023-10-08T10:26:16;22.10;99.90
8595;DHT22;4335;48.860;9.198;2023-10-08T10:29:22;22.30;99.90
8595;DHT22;4335;48.860;9.198;2023-10-08T10:31:59;22.40;99.90
8595;DHT22;4335;48.860;9.198;2023-10-08T10:34:29;22.50;99.90
8595;DHT22;4335;48.860;9.198;2023-10-08T10:37:10;22.60;99.90
8595;DHT22;4335;48.860;9.198;2023-10-08T10:39:55;22.60;99.90
8595;DHT22;4335;48.860;9.198;2023-10-08T10:42:25;22.50;99.90
8595;DHT22;4335;48.860;9.198;2023-10-08T10:44:54;22.50;99.90
8595;DHT22;4335;48.860;9.198;2023-10-08T10:47:44;22.50;99.90
8595;DHT22;4335;48.860;9.198;2023-10-08T10:50:12;22.40;99.90
8595;DHT22;4335;48.860;9.198;2023-10-08T10:53:02;22.70;99.90
8595;DHT22;4335;48.860;9.198;2023-10-08T10:55:39;23.40;99.90
8595;DHT22;4335;48.860;9.198;2023-10-08T10:58:16;23.90;99.90
8595;DHT22;4335;48.860;9.198;2023-10-08T11:00:56;24.20;99.90
8595;DHT22;4335;48.860;9.198;2023-10-08T11:03:32;24.40;99.90
8595;DHT22;4335;48.860;9.198;2023-10-08T11:06:01;24.50;99.90
8595;DHT22;4335;48.860;9.198;2023-10-08T11:08:33;24.40;99.90
8595;DHT22;4335;48.860;9.198;2023-10-08T11:11:06;24.30;99.90
8595;DHT22;4335;48.860;9.198;2023-10-08T11:13:41;24.30;99.90
8595;DHT22;4335;48.860;9.198;2023-10-08T11:16:08;24.30;99.90
8595;DHT22;4335;48.860;9.198;2023-10-08T11:18:40;24.30;99.90
8595;DHT22;4335;48.860;9.198;2023-10-08T11:21:23;24.20;99.90
8595;DHT22;4335;48.860;9.198;2023-10-08T11:23:57;24.10;99.90
8595;DHT22;4335;48.860;9.198;2023-10-08T11:26:26;24.00;99.90
8595;DHT22;4335;48.860;9.198;2023-10-08T11:28:59;24.00;99.90
8595;DHT22;4335;48.860;9.198;2023-10-08T11:31:29;24.00;99.90
8595;DHT22;4335;48.860;9.198;2023-10-08T11:34:00;23.90;99.90
8595;DHT22;4335;48.860;9.198;2023-10-08T11:36:30;23.90;99.90
8595;DHT22;4335;48.860;9.198;2023-10-08T11:39:11;23.90;99.90
8595;DHT22;4335;48.860;9.198;2023-10-08T11:42:00;23.80;99.90
8595;DHT22;4335;48.860;9.198;2023-10-08T11:44:32;23.60;99.90
8595;DHT22;4335;48.860;9.198;2023-10-08T11:47:01;23.50;99.90
8595;DHT22;4335;48.860;9.198;2023-10-08T11:49:37;23.50;99.90
8595;DHT22;4335;48.860;9.198;2023-10-08T11:52:12;23.30;99.90
8595;DHT22;4335;48.860;9.198;2023-10-08T11:54:42;23.20;99.90
8595;DHT22;4335;48.860;9.198;2023-10-08T11:57:11;23.10;99.90
8595;DHT22;4335;48.860;9.198;2023-10-08T11:59:41;23.00;99.90
8595;DHT22;4335;48.860;9.198;2023-10-08T12:02:11;23.10;99.90
8595;DHT22;4335;48.860;9.198;2023-10-08T12:04:42;23.00;99.90
8595;DHT22;4335;48.860;9.198;2023-10-08T12:07:16;22.90;99.90
8595;DHT22;4335;48.860;9.198;2023-10-08T12:09:44;22.90;99.90
8595;DHT22;4335;48.860;9.198;2023-10-08T12:12:16;22.80;99.90
8595;DHT22;4335;48.860;9.198;2023-10-08T12:14:48;22.70;99.90
8595;DHT22;4335;48.860;9.198;2023-10-08T12:17:15;22.80;99.90
8595;DHT22;4335;48.860;9.198;2023-10-08T12:19:46;22.70;99.90
8595;DHT22;4335;48.860;9.198;2023-10-08T12:22:16;22.80;99.90
8595;DHT22;4335;48.860;9.198;2023-10-08T12:24:46;22.70;99.90
8595;DHT22;4335;48.860;9.198;2023-10-08T12:27:14;22.70;99.90
8595;DHT22;4335;48.860;9.198;2023-10-08T12:29:43;22.60;99.90
8595;DHT22;4335;48.860;9.198;2023-10-08T12:32:10;22.50;99.90
8595;DHT22;4335;48.860;9.198;2023-10-08T12:34:45;22.50;99.90
8595;DHT22;4335;48.860;9.198;2023-10-08T12:37:16;22.50;99.90
8595;DHT22;4335;48.860;9.198;2023-10-08T12:39:43;22.50;99.90
8595;DHT22;4335;48.860;9.198;2023-10-08T12:42:23;22.40;99.90
8595;DHT22;4335;48.860;9.198;2023-10-08T12:44:54;22.40;99.90
8595;DHT22;4335;48.860;9.198;2023-10-08T12:47:23;22.40;99.90
8595;DHT22;4335;48.860;9.198;2023-10-08T12:50:01;22.30;99.90
8595;DHT22;4335;48.860;9.198;2023-10-08T12:52:36;22.40;99.90
8595;DHT22;4335;48.860;9.198;2023-10-08T12:55:03;22.40;99.90
8595;DHT22;4335;48.860;9.198;2023-10-08T12:57:30;22.40;99.90
8595;DHT22;4335;48.860;9.198;2023-10-08T13:00:01;22.40;99.90
8595;DHT22;4335;48.860;9.198;2023-10-08T13:02:29;22.40;99.90
8595;DHT22;4335;48.860;9.198;2023-10-08T13:04:56;22.40;99.90
8595;DHT22;4335;48.860;9.198;2023-10-08T13:07:27;22.40;99.90
8595;DHT22;4335;48.860;9.198;2023-10-08T13:10:05;22.50;99.90
8595;DHT22;4335;48.860;9.198;2023-10-08T13:12:32;22.50;99.90
8595;DHT22;4335;48.860;9.198;2023-10-08T13:14:59;22.40;99.90
8595;DHT22;4335;48.860;9.198;2023-10-08T13:17:38;22.40;99.90
8595;DHT22;4335;48.860;9.198;2023-10-08T13:20:09;22.40;99.90
8595;DHT22;4335;48.860;9.198;2023-10-08T13:22:40;22.40;99.90
8595;DHT22;4335;48.860;9.198;2023-10-08T13:25:09;22.40;99.90
8595;DHT22;4335;48.860;9.198;2023-10-08T13:27:41;22.40;99.90
8595;DHT22;4335;48.860;9.198;2023-10-08T13:30:09;22.40;99.90
8595;DHT22;4335;48.860;9.198;2023-10-08T13:32:36;22.50;99.90
8595;DHT22;4335;48.860;9.198;2023-10-08T13:35:03;22.50;99.90
8595;DHT22;4335;48.860;9.198;2023-10-08T13:37:32;22.40;99.90
8595;DHT22;4335;48.860;9.198;2023-10-08T13:40:03;22.50;99.90
8595;DHT22;4335;48.860;9.198;2023-10-08T13:42:30;22.60;99.90
8595;DHT22;4335;48.860;9.198;2023-10-08T13:44:58;22.50;99.90
8595;DHT22;4335;48.860;9.198;2023-10-08T13:47:25;22.50;99.50
8595;DHT22;4335;48.860;9.198;2023-10-08T13:50:00;22.50;99.90
8595;DHT22;4335;48.860;9.198;2023-10-08T13:52:32;22.50;99.90
8595;DHT22;4335;48.860;9.198;2023-10-08T13:55:07;22.50;99.60
8595;DHT22;4335;48.860;9.198;2023-10-08T13:57:39;22.50;99.90
8595;DHT22;4335;48.860;9.198;2023-10-08T14:00:13;22.50;99.90
8595;DHT22;4335;48.860;9.198;2023-10-08T14:02:47;22.60;99.90
8595;DHT22;4335;48.860;9.198;2023-10-08T14:05:17;22.60;99.60
8595;DHT22;4335;48.860;9.198;2023-10-08T14:07:43;22.60;99.90
8595;DHT22;4335;48.860;9.198;2023-10-08T14:10:13;22.60;99.90
8595;DHT22;4335;48.860;9.198;2023-10-08T14:12:45;22.60;99.70
8595;DHT22;4335;48.860;9.198;2023-10-08T14:15:16;22.70;99.00
8595;DHT22;4335;48.860;9.198;2023-10-08T14:17:46;22.70;99.20
8595;DHT22;4335;48.860;9.198;2023-10-08T14:20:14;22.60;99.40
8595;DHT22;4335;48.860;9.198;2023-10-08T14:22:47;22.50;99.40
8595;DHT22;4335;48.860;9.198;2023-10-08T14:25:23;22.50;99.60
8595;DHT22;4335;48.860;9.198;2023-10-08T14:27:58;22.50;99.30
8595;DHT22;4335;48.860;9.198;2023-10-08T14:30:33;22.40;99.00
8595;DHT22;4335;48.860;9.198;2023-10-08T14:33:08;22.40;98.10
8595;DHT22;4335;48.860;9.198;2023-10-08T14:35:38;22.50;98.40
8595;DHT22;4335;48.860;9.198;2023-10-08T14:38:23;22.40;97.90
8595;DHT22;4335;48.860;9.198;2023-10-08T14:41:07;22.50;98.30
8595;DHT22;4335;48.860;9.198;2023-10-08T14:43:52;22.50;98.70
8595;DHT22;4335;48.860;9.198;2023-10-08T14:46:19;22.40;98.60
8595;DHT22;4335;48.860;9.198;2023-10-08T14:48:47;22.40;99.20
8595;DHT22;4335;48.860;9.198;2023-10-08T14:51:15;22.50;99.90
8595;DHT22;4335;48.860;9.198;2023-10-08T14:53:44;22.50;99.90
8595;DHT22;4335;48.860;9.198;2023-10-08T14:56:11;22.50;99.90
8595;DHT22;4335;48.860;9.198;2023-10-08T14:58:38;22.50;99.90
8595;DHT22;4335;48.860;9.198;2023-10-08T15:01:06;22.50;99.90
8595;DHT22;4335;48.860;9.198;2023-10-08T15:03:34;22.40;99.90
8595;DHT22;4335;48.860;9.198;2023-10-08T15:06:02;22.40;99.90
8595;DHT22;4335;48.860;9.198;2023-10-08T15:08:32;22.40;99.90
8595;DHT22;4335;48.860;9.198;2023-10-08T15:11:05;22.50;99.90
8595;DHT22;4335;48.860;9.198;2023-10-08T15:13:32;22.50;99.90
8595;DHT22;4335;48.860;9.198;2023-10-08T15:16:05;22.40;99.90
8595;DHT22;4335;48.860;9.198;2023-10-08T15:18:31;22.40;99.90
8595;DHT22;4335;48.860;9.198;2023-10-08T15:21:00;22.40;99.90
8595;DHT22;4335;48.860;9.198;2023-10-08T15:23:29;22.40;99.90
8595;DHT22;4335;48.860;9.198;2023-10-08T15:25:57;22.40;99.90
8595;DHT22;4335;48.860;9.198;2023-10-08T15:28:24;22.30;99.90
8595;DHT22;4335;48.860;9.198;2023-10-08T15:31:01;22.30;99.90
8595;DHT22;4335;48.860;9.198;2023-10-08T15:33:30;22.20;99.90
8595;DHT22;4335;48.860;9.198;2023-10-08T15:35:57;22.10;99.90
8595;DHT22;4335;48.860;9.198;2023-10-08T15:38:25;22.10;99.90
8595;DHT22;4335;48.860;9.198;2023-10-08T15:40:52;22.00;99.90
8595;DHT22;4335;48.860;9.198;2023-10-08T15:43:29;22.00;99.90
8595;DHT22;4335;48.860;9.198;2023-10-08T15:45:55;21.90;99.90
8595;DHT22;4335;48.860;9.198;2023-10-08T15:48:22;21.80;99.90
8595;DHT22;4335;48.860;9.198;2023-10-08T15:50:51;21.80;99.90
8595;DHT22;4335;48.860;9.198;2023-10-08T15:53:22;21.80;99.90
8595;DHT22;4335;48.860;9.198;2023-10-08T15:55:58;21.80;99.90
8595;DHT22;4335;48.860;9.198;2023-10-08T15:58:34;21.70;99.90
8595;DHT22;4335;48.860;9.198;2023-10-08T16:01:06;21.70;99.90
8595;DHT22;4335;48.860;9.198;2023-10-08T16:03:33;21.70;99.90
8595;DHT22;4335;48.860;9.198;2023-10-08T16:06:03;21.70;99.90
8595;DHT22;4335;48.860;9.198;2023-10-08T16:08:30;21.70;99.90
8595;DHT22;4335;48.860;9.198;2023-10-08T16:10:58;21.70;99.90
8595;DHT22;4335;48.860;9.198;2023-10-08T16:13:24;21.60;99.90
8595;DHT22;4335;48.860;9.198;2023-10-08T16:15:51;21.60;99.90
8595;DHT22;4335;48.860;9.198;2023-10-08T16:18:22;21.50;99.90
8595;DHT22;4335;48.860;9.198;2023-10-08T16:20:52;21.50;99.90
8595;DHT22;4335;48.860;9.198;2023-10-08T16:23:21;21.40;99.90
8595;DHT22;4335;48.860;9.198;2023-10-08T16:25:51;21.30;99.90
8595;DHT22;4335;48.860;9.198;2023-10-08T16:28:23;21.30;99.90
8595;DHT22;4335;48.860;9.198;2023-10-08T16:30:50;21.20;99.90
8595;DHT22;4335;48.860;9.198;2023-10-08T16:33:20;21.20;99.90
8595;DHT22;4335;48.860;9.198;2023-10-08T16:35:54;21.10;99.90